createdAt,value
2019-02-27T00:01:24.117Z,11.20
2019-02-27T00:03:54.547Z,11.90
2019-02-27T00:06:25.717Z,12.90
2019-02-27T00:08:54.909Z,12.93
2019-02-27T00:11:23.202Z,13.53
2019-02-27T00:13:51.906Z,10.43
2019-02-27T00:16:20.126Z,12.87
2019-02-27T00:18:49.146Z,11.57
2019-02-27T00:21:17.729Z,13.33
2019-02-27T00:23:47.053Z,13.47
2019-02-27T00:26:15.967Z,11.37
2019-02-27T00:28:46.240Z,12.53
2019-02-27T00:31:18.039Z,12.90
2019-02-27T00:33:46.980Z,10.87
2019-02-27T00:36:16.013Z,11.27
2019-02-27T00:38:45.480Z,13.10
2019-02-27T00:41:15.635Z,10.00
2019-02-27T00:43:45.396Z,13.33
2019-02-27T00:46:15.553Z,10.73
2019-02-27T00:48:44.097Z,12.23
2019-02-27T00:51:13.802Z,11.67
2019-02-27T00:53:43.617Z,13.00
2019-02-27T00:56:12.892Z,14.37
2019-02-27T00:58:41.604Z,16.17
2019-02-27T01:01:12.776Z,14.50
2019-02-27T01:03:41.533Z,13.13
2019-02-27T01:06:12.284Z,15.70
2019-02-27T01:08:40.961Z,11.73
2019-02-27T01:11:09.773Z,11.27
2019-02-27T01:13:38.014Z,12.27
2019-02-27T01:16:07.717Z,12.73
2019-02-27T01:18:35.924Z,12.00
2019-02-27T01:21:04.375Z,12.33
2019-02-27T01:23:33.157Z,12.03
2019-02-27T01:26:02.104Z,11.90
2019-02-27T01:28:30.558Z,10.07
2019-02-27T01:31:02.336Z,10.47
2019-02-27T01:33:31.270Z,11.57
2019-02-27T01:36:01.286Z,14.23
2019-02-27T01:38:29.715Z,14.67
2019-02-27T01:40:58.688Z,16.10
2019-02-27T01:43:28.057Z,15.30
2019-02-27T01:45:58.235Z,13.40
2019-02-27T01:48:26.648Z,12.10
2019-02-27T01:50:55.793Z,12.80
2019-02-27T01:53:24.522Z,14.03
2019-02-27T01:55:56.375Z,12.93
2019-02-27T01:58:25.274Z,11.20
2019-02-27T02:00:56.039Z,13.63
2019-02-27T02:03:26.598Z,15.97
2019-02-27T02:05:59.767Z,12.47
2019-02-27T02:08:28.296Z,11.87
2019-02-27T02:10:58.841Z,13.03
2019-02-27T02:14:21.095Z,12.53
2019-02-27T02:17:32.789Z,13.57
2019-02-27T02:21:08.992Z,15.70
2019-02-27T02:24:39.225Z,13.17
2019-02-27T02:27:57.571Z,14.90
2019-02-27T02:31:26.167Z,12.47
2019-02-27T02:34:48.905Z,11.50
2019-02-27T02:38:45.233Z,15.40
2019-02-27T02:42:11.506Z,10.97
2019-02-27T02:45:10.613Z,14.40
2019-02-27T02:48:15.990Z,14.67
2019-02-27T02:51:48.725Z,14.83
2019-02-27T02:55:21.971Z,15.30
2019-02-27T02:58:17.548Z,16.63
2019-02-27T03:01:00.799Z,16.40
2019-02-27T03:04:16.890Z,16.07
2019-02-27T03:07:18.854Z,15.40
2019-02-27T03:10:19.225Z,12.80
2019-02-27T03:13:45.526Z,15.67
2019-02-27T03:16:47.464Z,15.23
2019-02-27T03:20:06.830Z,14.37
2019-02-27T03:23:30.489Z,13.93
2019-02-27T03:26:39.521Z,15.33
2019-02-27T03:29:53.619Z,14.47
2019-02-27T03:33:09.727Z,15.07
2019-02-27T03:36:23.205Z,13.63
2019-02-27T03:40:02.428Z,14.40
2019-02-27T03:43:45.940Z,13.47
2019-02-27T03:47:08.611Z,17.17
2019-02-27T03:50:42.540Z,12.70
2019-02-27T03:54:05.057Z,15.67
2019-02-27T03:57:18.915Z,18.23
2019-02-27T04:00:30.920Z,14.83
2019-02-27T04:03:38.424Z,20.90
2019-02-27T04:06:44.976Z,16.13
2019-02-27T04:09:18.602Z,14.00
2019-02-27T04:11:45.952Z,15.97
2019-02-27T04:14:40.502Z,20.30
2019-02-27T04:17:07.475Z,15.03
2019-02-27T04:19:39.248Z,18.73
2019-02-27T04:22:06.528Z,19.33
2019-02-27T04:24:35.501Z,17.13
2019-02-27T04:27:04.607Z,13.67
2019-02-27T04:29:33.149Z,19.47
2019-02-27T04:32:01.636Z,16.97
2019-02-27T04:34:33.050Z,20.10
2019-02-27T04:37:00.264Z,13.77
2019-02-27T04:39:29.634Z,15.90
2019-02-27T04:41:58.194Z,16.30
2019-02-27T04:44:27.482Z,14.27
2019-02-27T04:46:56.162Z,13.17
2019-02-27T04:49:25.345Z,14.60
2019-02-27T04:51:53.687Z,13.83
2019-02-27T04:54:24.400Z,13.67
2019-02-27T04:56:55.046Z,17.60
2019-02-27T04:59:23.773Z,16.37
2019-02-27T05:01:51.812Z,18.00
2019-02-27T05:04:20.311Z,16.53
2019-02-27T05:06:52.830Z,16.60
2019-02-27T05:09:20.860Z,17.37
2019-02-27T05:11:49.000Z,17.83
2019-02-27T05:14:17.195Z,17.33
2019-02-27T05:16:49.743Z,17.33
2019-02-27T05:19:17.686Z,13.57
2019-02-27T05:21:46.352Z,17.23
2019-02-27T05:24:15.453Z,17.03
2019-02-27T05:26:43.778Z,14.73
2019-02-27T05:29:11.741Z,14.87
2019-02-27T05:31:40.473Z,20.53
2019-02-27T05:34:12.389Z,16.07
2019-02-27T05:36:39.283Z,19.33
2019-02-27T05:39:09.282Z,14.07
2019-02-27T05:41:38.170Z,16.10
2019-02-27T05:44:07.379Z,20.87
2019-02-27T05:46:38.142Z,17.63
2019-02-27T05:49:06.276Z,15.50
2019-02-27T05:51:35.331Z,18.20
2019-02-27T05:54:06.930Z,17.47
2019-02-27T05:56:36.119Z,17.47
2019-02-27T05:59:05.408Z,17.43
2019-02-27T06:01:37.791Z,17.73
2019-02-27T06:04:06.414Z,19.40
2019-02-27T06:06:34.831Z,15.63
2019-02-27T06:09:09.907Z,16.37
2019-02-27T06:11:35.719Z,17.03
2019-02-27T06:14:05.625Z,14.63
2019-02-27T06:16:37.056Z,14.20
2019-02-27T06:19:05.012Z,12.20
2019-02-27T06:21:33.057Z,12.67
2019-02-27T06:24:03.465Z,15.00
2019-02-27T06:26:33.001Z,14.17
2019-02-27T06:29:02.967Z,13.97
2019-02-27T06:31:31.259Z,15.67
2019-02-27T06:33:59.684Z,11.47
2019-02-27T06:36:27.755Z,15.63
2019-02-27T06:39:00.123Z,14.37
2019-02-27T06:41:26.299Z,13.60
2019-02-27T06:43:54.728Z,12.77
2019-02-27T06:46:24.075Z,13.03
2019-02-27T06:48:56.442Z,14.97
2019-02-27T06:51:26.214Z,10.17
2019-02-27T06:53:57.885Z,12.63
2019-02-27T06:56:26.957Z,9.10
2019-02-27T06:58:55.127Z,16.67
2019-02-27T07:01:23.579Z,12.83
2019-02-27T07:03:51.719Z,15.03
2019-02-27T07:06:21.670Z,11.70
2019-02-27T07:08:49.890Z,11.10
2019-02-27T07:11:17.930Z,9.70
2019-02-27T07:13:47.126Z,10.60
2019-02-27T07:16:16.535Z,11.50
2019-02-27T07:18:45.002Z,11.13
2019-02-27T07:21:13.622Z,10.73
2019-02-27T07:23:42.355Z,11.30
2019-02-27T07:26:13.261Z,12.60
2019-02-27T07:28:43.528Z,14.33
2019-02-27T07:31:12.532Z,11.93
2019-02-27T07:33:41.665Z,11.23
2019-02-27T07:36:11.205Z,12.27
2019-02-27T07:38:39.520Z,13.90
2019-02-27T07:41:07.627Z,13.77
2019-02-27T07:43:35.741Z,10.50
2019-02-27T07:46:04.103Z,14.17
2019-02-27T07:48:33.011Z,12.47
2019-02-27T07:51:02.251Z,9.90
2019-02-27T07:53:30.292Z,14.00
2019-02-27T07:55:58.378Z,11.03
2019-02-27T07:58:29.285Z,14.00
2019-02-27T08:00:58.742Z,13.53
2019-02-27T08:03:27.052Z,13.63
2019-02-27T08:05:55.215Z,12.07
2019-02-27T08:08:24.564Z,15.50
2019-02-27T08:10:52.854Z,13.10
2019-02-27T08:13:21.637Z,14.27
2019-02-27T08:15:49.750Z,13.37
2019-02-27T08:18:27.110Z,11.43
2019-02-27T08:20:48.750Z,13.67
2019-02-27T08:23:17.135Z,14.43
2019-02-27T08:25:47.590Z,16.23
2019-02-27T08:28:16.798Z,12.87
2019-02-27T08:30:44.822Z,13.40
2019-02-27T08:33:15.188Z,15.67
2019-02-27T08:35:43.763Z,12.80
2019-02-27T08:38:12.619Z,13.20
2019-02-27T08:40:41.959Z,14.63
2019-02-27T08:43:11.003Z,12.13
2019-02-27T08:45:42.877Z,12.17
2019-02-27T08:48:17.081Z,17.97
2019-02-27T08:50:43.151Z,13.63
2019-02-27T08:53:12.481Z,14.63
2019-02-27T08:55:41.288Z,14.23
2019-02-27T08:58:10.508Z,13.13
2019-02-27T09:00:41.425Z,13.37
2019-02-27T09:03:19.763Z,14.80
2019-02-27T09:05:41.584Z,14.67
2019-02-27T09:08:10.789Z,16.40
2019-02-27T09:10:39.452Z,16.20
2019-02-27T09:13:07.912Z,16.63
2019-02-27T09:15:36.659Z,17.77
2019-02-27T09:18:05.289Z,15.17
2019-02-27T09:20:33.765Z,15.97
2019-02-27T09:23:02.248Z,14.27
2019-02-27T09:25:31.336Z,15.53
2019-02-27T09:27:59.736Z,13.13
2019-02-27T09:30:29.323Z,16.77
2019-02-27T09:32:58.524Z,17.57
2019-02-27T09:35:34.531Z,17.47
2019-02-27T09:38:00.364Z,16.73
2019-02-27T09:40:29.655Z,16.50
2019-02-27T09:42:58.020Z,18.20
2019-02-27T09:45:29.114Z,19.77
2019-02-27T09:48:00.002Z,19.20
2019-02-27T09:50:41.615Z,15.23
2019-02-27T09:53:12.064Z,16.23
2019-02-27T09:55:40.795Z,15.90
2019-02-27T09:58:11.306Z,18.70
2019-02-27T10:00:42.847Z,18.73
2019-02-27T10:03:11.375Z,20.87
2019-02-27T10:05:40.868Z,15.07
2019-02-27T10:08:10.698Z,16.90
2019-02-27T10:10:38.765Z,17.07
2019-02-27T10:13:07.882Z,15.73
2019-02-27T10:15:36.546Z,11.53
2019-02-27T10:18:04.901Z,16.07
2019-02-27T10:20:36.746Z,14.70
2019-02-27T10:23:03.764Z,17.27
2019-02-27T10:25:32.405Z,14.20
2019-02-27T10:28:04.311Z,14.27
2019-02-27T10:30:32.149Z,14.13
2019-02-27T10:33:00.828Z,13.27
2019-02-27T10:35:29.373Z,17.67
2019-02-27T10:37:59.223Z,15.80
2019-02-27T10:40:27.159Z,13.33
2019-02-27T10:42:55.830Z,15.50
2019-02-27T10:45:24.338Z,17.47
2019-02-27T10:47:52.979Z,12.70
2019-02-27T10:50:21.152Z,12.97
2019-02-27T10:52:50.392Z,12.33
2019-02-27T10:55:19.278Z,11.13
2019-02-27T10:57:48.072Z,12.50
2019-02-27T11:00:24.855Z,11.03
2019-02-27T11:02:52.639Z,12.93
2019-02-27T11:05:22.700Z,11.13
2019-02-27T11:07:52.974Z,11.93
2019-02-27T11:10:22.674Z,11.73
2019-02-27T11:12:50.759Z,13.87
2019-02-27T11:15:19.672Z,14.80
2019-02-27T11:17:48.411Z,10.87
2019-02-27T11:20:20.983Z,13.60
2019-02-27T11:22:48.839Z,13.67
2019-02-27T11:25:22.331Z,15.40
2019-02-27T11:27:49.195Z,14.77
2019-02-27T11:30:21.617Z,13.43
2019-02-27T11:32:50.222Z,13.20
2019-02-27T11:35:18.741Z,10.10
2019-02-27T11:37:47.822Z,12.10
2019-02-27T11:40:18.611Z,12.13
2019-02-27T11:42:47.104Z,14.17
2019-02-27T11:45:16.074Z,13.27
2019-02-27T11:47:47.724Z,10.03
2019-02-27T11:50:18.019Z,11.00
2019-02-27T11:52:49.029Z,12.67
2019-02-27T11:55:18.815Z,11.40
2019-02-27T11:57:47.304Z,16.40
2019-02-27T12:00:21.305Z,13.37
2019-02-27T12:02:50.289Z,12.30
2019-02-27T12:05:19.320Z,15.80
2019-02-27T12:07:50.678Z,12.37
2019-02-27T12:10:20.265Z,12.90
2019-02-27T12:12:48.925Z,12.33
2019-02-27T12:15:18.430Z,12.13
2019-02-27T12:17:47.276Z,16.03
2019-02-27T12:20:18.922Z,14.53
2019-02-27T12:22:50.313Z,11.83
2019-02-27T12:25:19.531Z,11.73
2019-02-27T12:27:50.295Z,10.50
2019-02-27T12:30:18.807Z,15.00
2019-02-27T12:32:47.238Z,14.03
2019-02-27T12:35:21.534Z,11.93
2019-02-27T12:37:49.807Z,11.50
2019-02-27T12:40:23.925Z,11.10
2019-02-27T12:42:50.607Z,11.93
2019-02-27T12:45:20.525Z,11.47
2019-02-27T12:47:49.041Z,10.63
2019-02-27T12:50:19.263Z,9.00
2019-02-27T12:52:48.078Z,7.43
2019-02-27T12:55:17.169Z,7.37
2019-02-27T12:57:45.216Z,8.93
2019-02-27T13:00:17.258Z,6.97
2019-02-27T13:02:48.601Z,9.20
2019-02-27T13:05:17.813Z,7.90
2019-02-27T13:07:46.185Z,8.37
2019-02-27T13:10:19.769Z,8.07
2019-02-27T13:12:51.891Z,6.43
2019-02-27T13:15:20.891Z,5.90
2019-02-27T13:17:50.162Z,6.40
2019-02-27T13:20:21.485Z,5.37
2019-02-27T13:22:49.479Z,6.90
2019-02-27T13:25:17.682Z,5.20
2019-02-27T13:27:46.010Z,5.30
2019-02-27T13:30:17.558Z,4.07
2019-02-27T13:32:46.167Z,6.20
2019-02-27T13:35:14.701Z,6.63
2019-02-27T13:37:44.508Z,4.93
2019-02-27T13:40:15.669Z,6.03
2019-02-27T13:42:52.441Z,2.73
2019-02-27T13:45:23.399Z,3.70
2019-02-27T13:47:51.689Z,2.30
2019-02-27T13:50:23.604Z,2.33
2019-02-27T13:52:50.785Z,5.33
2019-02-27T13:55:19.473Z,3.50
2019-02-27T13:57:47.895Z,2.83
2019-02-27T14:00:21.015Z,3.90
2019-02-27T14:02:49.992Z,6.57
2019-02-27T14:05:18.658Z,6.37
2019-02-27T14:07:47.059Z,7.10
2019-02-27T14:10:17.586Z,6.57
2019-02-27T14:12:55.282Z,7.00
2019-02-27T14:15:26.946Z,5.00
2019-02-27T14:17:54.079Z,6.40
2019-02-27T14:20:22.733Z,7.50
2019-02-27T14:22:51.283Z,7.03
2019-02-27T14:25:21.871Z,6.00
2019-02-27T14:27:51.817Z,5.27
2019-02-27T14:30:28.908Z,7.17
2019-02-27T14:33:00.699Z,10.90
2019-02-27T14:35:35.279Z,7.07
2019-02-27T14:38:06.978Z,8.27
2019-02-27T14:40:37.787Z,6.37
2019-02-27T14:43:05.539Z,7.77
2019-02-27T14:45:39.852Z,8.37
2019-02-27T14:48:04.499Z,5.03
2019-02-27T14:50:34.534Z,8.67
2019-02-27T14:53:03.608Z,7.03
2019-02-27T14:55:36.273Z,6.10
2019-02-27T14:58:03.940Z,5.80
2019-02-27T15:00:32.957Z,7.57
2019-02-27T15:03:00.831Z,7.73
2019-02-27T15:05:29.947Z,6.90
2019-02-27T15:07:58.623Z,11.10
2019-02-27T15:10:27.474Z,7.23
2019-02-27T15:12:57.273Z,7.30
2019-02-27T15:15:28.289Z,4.93
2019-02-27T15:17:56.646Z,5.97
2019-02-27T15:20:25.930Z,7.17
2019-02-27T15:22:54.812Z,6.90
2019-02-27T15:25:24.142Z,8.47
2019-02-27T15:27:58.293Z,6.70
2019-02-27T15:30:25.162Z,6.67
2019-02-27T15:32:55.378Z,11.13
2019-02-27T15:35:24.690Z,14.33
2019-02-27T15:37:53.747Z,14.50
2019-02-27T15:40:28.616Z,7.57
2019-02-27T15:42:55.523Z,7.87
2019-02-27T15:45:24.239Z,9.27
2019-02-27T15:47:54.764Z,7.20
2019-02-27T15:50:24.244Z,9.50
2019-02-27T15:52:52.673Z,7.40
2019-02-27T15:55:21.657Z,10.00
2019-02-27T15:57:53.510Z,6.90
2019-02-27T16:00:22.076Z,9.10
2019-02-27T16:02:50.625Z,10.83
2019-02-27T16:05:19.514Z,8.90
2019-02-27T16:07:51.879Z,12.20
2019-02-27T16:10:21.170Z,9.43
2019-02-27T16:12:50.069Z,8.47
2019-02-27T16:15:18.166Z,8.47
2019-02-27T16:17:46.315Z,12.93
2019-02-27T16:20:16.869Z,9.67
2019-02-27T16:22:45.519Z,9.63
2019-02-27T16:25:19.542Z,11.50
2019-02-27T16:27:46.641Z,10.87
2019-02-27T16:30:19.082Z,11.63
2019-02-27T16:32:49.870Z,9.20
2019-02-27T16:35:19.251Z,10.73
2019-02-27T16:37:48.020Z,11.20
2019-02-27T16:40:18.654Z,9.20
2019-02-27T16:42:48.614Z,11.83
2019-02-27T16:45:19.984Z,7.57
2019-02-27T16:47:50.447Z,17.17
2019-02-27T16:50:23.972Z,12.20
2019-02-27T16:52:52.152Z,9.87
2019-02-27T16:55:22.456Z,18.17
2019-02-27T16:57:50.944Z,16.30
2019-02-27T17:00:22.673Z,16.53
2019-02-27T17:02:50.687Z,14.60
2019-02-27T17:05:19.221Z,18.00
2019-02-27T17:07:47.834Z,11.90
2019-02-27T17:10:20.811Z,14.57
2019-02-27T17:12:49.807Z,12.30
2019-02-27T17:15:19.012Z,17.60
2019-02-27T17:17:47.495Z,13.77
2019-02-27T17:20:18.074Z,13.17
2019-02-27T17:22:46.175Z,16.10
2019-02-27T17:25:14.678Z,17.03
2019-02-27T17:27:42.942Z,16.03
2019-02-27T17:30:20.447Z,15.53
2019-02-27T17:32:49.064Z,16.17
2019-02-27T17:35:20.497Z,14.23
2019-02-27T17:37:48.765Z,25.80
2019-02-27T17:40:17.211Z,13.90
2019-02-27T17:42:46.121Z,19.60
2019-02-27T17:45:17.009Z,19.00
2019-02-27T17:47:45.428Z,18.27
2019-02-27T17:50:14.855Z,17.47
2019-02-27T17:52:48.538Z,14.23
2019-02-27T17:55:14.597Z,18.00
2019-02-27T17:57:43.945Z,16.57
2019-02-27T18:00:16.842Z,16.93
2019-02-27T18:02:45.554Z,14.63
2019-02-27T18:05:15.887Z,15.87
2019-02-27T18:07:45.892Z,16.87
2019-02-27T18:10:16.694Z,16.47
2019-02-27T18:12:45.303Z,14.03
2019-02-27T18:15:14.175Z,23.10
2019-02-27T18:17:42.370Z,18.50
2019-02-27T18:20:10.859Z,17.13
2019-02-27T18:22:39.660Z,16.87
2019-02-27T18:25:08.562Z,14.20
2019-02-27T18:27:36.752Z,13.13
2019-02-27T18:30:06.727Z,15.10
2019-02-27T18:32:39.730Z,16.03
2019-02-27T18:35:07.265Z,14.93
2019-02-27T18:37:35.435Z,16.57
2019-02-27T18:40:08.344Z,13.77
2019-02-27T18:42:38.854Z,13.40
2019-02-27T18:45:09.088Z,15.00
2019-02-27T18:47:37.683Z,14.00
2019-02-27T18:50:06.438Z,11.93
2019-02-27T18:52:34.970Z,10.70
2019-02-27T18:55:03.901Z,13.90
2019-02-27T18:57:32.824Z,10.43
2019-02-27T19:00:02.392Z,10.20
2019-02-27T19:02:31.060Z,9.70
2019-02-27T19:04:59.455Z,16.70
2019-02-27T19:07:28.297Z,12.40
2019-02-27T19:09:57.808Z,12.87
2019-02-27T19:12:28.581Z,16.90
2019-02-27T19:14:56.892Z,15.03
2019-02-27T19:17:29.027Z,15.63
2019-02-27T19:19:57.085Z,15.07
2019-02-27T19:22:25.858Z,14.27
2019-02-27T19:24:57.512Z,15.70
2019-02-27T19:27:28.530Z,15.83
2019-02-27T19:29:57.419Z,15.37
2019-02-27T19:32:26.843Z,11.43
2019-02-27T19:34:55.922Z,14.67
2019-02-27T19:37:24.353Z,13.00
2019-02-27T19:39:56.345Z,13.03
2019-02-27T19:42:24.607Z,11.53
2019-02-27T19:44:52.769Z,14.63
2019-02-27T19:47:22.461Z,16.23
2019-02-27T19:49:52.642Z,13.77
2019-02-27T19:52:21.127Z,15.33
2019-02-27T19:54:52.759Z,14.07
2019-02-27T19:57:23.693Z,13.57
2019-02-27T19:59:58.828Z,13.80
2019-02-27T20:02:26.379Z,15.73
2019-02-27T20:04:55.735Z,17.73
2019-02-27T20:07:24.420Z,14.30
2019-02-27T20:09:54.333Z,14.77
2019-02-27T20:12:26.051Z,14.53
2019-02-27T20:14:54.888Z,15.63
2019-02-27T20:17:23.491Z,19.07
2019-02-27T20:19:52.115Z,18.47
2019-02-27T20:22:20.816Z,17.03
2019-02-27T20:24:49.157Z,20.87
2019-02-27T20:27:17.278Z,16.00
2019-02-27T20:29:45.661Z,15.00
2019-02-27T20:32:15.560Z,17.07
2019-02-27T20:34:45.855Z,18.77
2019-02-27T20:37:14.104Z,17.17
2019-02-27T20:39:42.609Z,13.40
2019-02-27T20:42:13.668Z,16.80
2019-02-27T20:44:40.959Z,12.60
2019-02-27T20:47:10.011Z,14.87
2019-02-27T20:49:39.135Z,18.53
2019-02-27T20:52:08.165Z,42.67
2019-02-27T20:54:36.993Z,19.27
2019-02-27T20:57:08.158Z,25.30
2019-02-27T20:59:35.437Z,20.40
2019-02-27T21:02:05.045Z,19.37
2019-02-27T21:04:35.233Z,20.43
2019-02-27T21:07:04.519Z,13.27
2019-02-27T21:09:33.304Z,16.67
2019-02-27T21:12:04.553Z,13.63
2019-02-27T21:14:32.516Z,17.03
2019-02-27T21:17:00.848Z,15.50
2019-02-27T21:19:28.806Z,15.83
2019-02-27T21:21:57.398Z,13.13
2019-02-27T21:24:25.553Z,12.93
2019-02-27T21:26:54.177Z,11.10
2019-02-27T21:29:22.855Z,12.00
2019-02-27T21:31:51.142Z,11.20
2019-02-27T21:34:20.244Z,12.23
2019-02-27T21:36:50.755Z,11.07
2019-02-27T21:39:19.210Z,12.93
2019-02-27T21:41:48.042Z,12.30
2019-02-27T21:44:25.304Z,13.73
2019-02-27T21:46:47.479Z,12.27
2019-02-27T21:49:17.007Z,9.10
2019-02-27T21:51:48.204Z,9.37
2019-02-27T21:54:15.600Z,12.53
2019-02-27T21:56:43.879Z,11.07
2019-02-27T21:59:12.349Z,12.73
2019-02-27T22:01:40.893Z,14.57
2019-02-27T22:04:10.790Z,10.40
2019-02-27T22:06:39.279Z,12.37
2019-02-27T22:09:10.213Z,11.30
2019-02-27T22:11:37.261Z,11.77
2019-02-27T22:14:06.717Z,10.37
2019-02-27T22:16:35.948Z,12.00
2019-02-27T22:19:05.990Z,12.43
2019-02-27T22:21:35.109Z,11.00
2019-02-27T22:24:04.058Z,10.07
2019-02-27T22:26:34.149Z,11.57
2019-02-27T22:29:04.804Z,10.80
2019-02-27T22:31:33.680Z,12.13
2019-02-27T22:34:02.127Z,13.37
2019-02-27T22:36:39.312Z,11.00
2019-02-27T22:39:08.250Z,10.27
2019-02-27T22:41:37.037Z,10.77
2019-02-27T22:44:05.914Z,19.73
2019-02-27T22:46:35.076Z,14.60
2019-02-27T22:49:05.214Z,11.33
2019-02-27T22:51:34.702Z,9.13
2019-02-27T22:54:04.620Z,9.93
2019-02-27T22:56:36.033Z,11.33
2019-02-27T22:59:05.179Z,11.13
2019-02-27T23:01:59.808Z,13.07
2019-02-27T23:04:30.037Z,12.80
2019-02-27T23:06:59.440Z,13.70
2019-02-27T23:09:29.487Z,13.67
2019-02-27T23:11:57.773Z,15.93
2019-02-27T23:14:26.937Z,15.43
2019-02-27T23:16:55.576Z,15.93
2019-02-27T23:19:24.334Z,26.27
2019-02-27T23:21:53.186Z,14.17
2019-02-27T23:24:21.326Z,11.63
2019-02-27T23:26:54.371Z,15.23
2019-02-27T23:29:20.573Z,12.40
2019-02-27T23:31:49.256Z,17.20
2019-02-27T23:34:18.130Z,15.77
2019-02-27T23:36:55.601Z,15.63
2019-02-27T23:39:22.440Z,10.73
2019-02-27T23:41:50.844Z,15.50
2019-02-27T23:44:19.824Z,11.13
2019-02-27T23:46:51.280Z,10.87
2019-02-27T23:49:19.335Z,13.87
2019-02-27T23:51:48.567Z,11.80
2019-02-27T23:54:17.003Z,14.63
2019-02-27T23:56:45.982Z,12.97
2019-02-27T23:59:14.441Z,14.07
